Arendahl, Minnesota
Current Conditions -  °F | °C
As of 12:55 AM on Thursday 27 Nov 2014 (Local Time) from KFKA Reporting Station
Overcast Overcast  
Wind Chill:   Ceiling: 1400
Heat Index: 19°   Visibility: 10mi
Dew Point: 15°   Wind: 14mph
Humidity: 85%   Direction: 320°NW
Pressure: 30.3"   Gusts: 18mph
Location:  43.7298°N, 91.8267°W
Report Text: KFKA 270655Z AUTO 32012G16KT 10SM BKN014 OVC024 M07/M09 A3030 RMK AO2 T10731095
Loading
Personal Weather Stations






























Interactive Weather Map New forecast layout! Learn more

10-Day Weather Forecast

Advertisements
Track Severe Weather on mobile